Rouseville, Pennsylvania
Current Conditions -  °F | °C
As of 8:15 PM on Saturday 22 Nov 2014 (Local Time) from KFKL Reporting Station
Overcast Overcast  
Wind Chill: 32°   Ceiling: 4600
Heat Index: 39°   Visibility: 10mi
Dew Point: 30°   Wind: 10mph
Humidity: 70%   Direction: 200°SSW
Pressure: 30.08"   Gusts: NA
Location:  41.47°N, 79.69°W
Report Text: KFKL 230115Z AUTO 20009KT 10SM SCT035 OVC046 04/M01 A3008 RMK AO1
Loading
Personal Weather Stations






























Interactive Weather Map New forecast layout! Learn more

10-Day Weather Forecast

Advertisements
Track Severe Weather on mobile